sensor_id;sensor_type;location;lat;lon;timestamp;P1;durP1;ratioP1;P2;durP2;ratioP2
78873;SDS011;68250;43.514;1.494;2023-07-08T00:00:25;7.30;;;2.40;;
78873;SDS011;68250;43.514;1.494;2023-07-08T00:02:51;5.70;;;2.50;;
78873;SDS011;68250;43.514;1.494;2023-07-08T00:05:18;5.70;;;2.00;;
78873;SDS011;68250;43.514;1.494;2023-07-08T00:07:45;7.30;;;2.30;;
78873;SDS011;68250;43.514;1.494;2023-07-08T00:10:15;6.07;;;2.22;;
78873;SDS011;68250;43.514;1.494;2023-07-08T00:12:44;10.60;;;2.50;;
78873;SDS011;68250;43.514;1.494;2023-07-08T00:15:10;7.70;;;2.65;;
78873;SDS011;68250;43.514;1.494;2023-07-08T00:17:36;7.95;;;2.53;;
78873;SDS011;68250;43.514;1.494;2023-07-08T00:22:59;7.97;;;3.00;;
78873;SDS011;68250;43.514;1.494;2023-07-08T00:25:28;7.90;;;3.10;;
78873;SDS011;68250;43.514;1.494;2023-07-08T00:27:54;7.78;;;3.47;;
78873;SDS011;68250;43.514;1.494;2023-07-08T00:32:47;8.70;;;3.55;;
78873;SDS011;68250;43.514;1.494;2023-07-08T00:35:12;8.80;;;3.53;;
78873;SDS011;68250;43.514;1.494;2023-07-08T00:37:38;9.82;;;3.85;;
78873;SDS011;68250;43.514;1.494;2023-07-08T00:40:14;10.10;;;3.37;;
78873;SDS011;68250;43.514;1.494;2023-07-08T00:42:43;8.52;;;4.07;;
78873;SDS011;68250;43.514;1.494;2023-07-08T00:45:19;9.07;;;3.80;;
78873;SDS011;68250;43.514;1.494;2023-07-08T00:50:40;6.53;;;3.73;;
78873;SDS011;68250;43.514;1.494;2023-07-08T00:53:26;10.70;;;4.00;;
78873;SDS011;68250;43.514;1.494;2023-07-08T00:55:52;11.25;;;4.00;;
78873;SDS011;68250;43.514;1.494;2023-07-08T00:58:22;9.90;;;3.90;;
78873;SDS011;68250;43.514;1.494;2023-07-08T01:00:49;11.63;;;4.10;;
78873;SDS011;68250;43.514;1.494;2023-07-08T01:03:16;8.75;;;4.20;;
78873;SDS011;68250;43.514;1.494;2023-07-08T01:05:43;8.88;;;4.10;;
78873;SDS011;68250;43.514;1.494;2023-07-08T01:08:09;9.90;;;4.43;;
78873;SDS011;68250;43.514;1.494;2023-07-08T01:10:50;9.83;;;4.00;;
78873;SDS011;68250;43.514;1.494;2023-07-08T01:13:18;8.52;;;4.28;;
78873;SDS011;68250;43.514;1.494;2023-07-08T01:15:45;9.20;;;4.50;;
78873;SDS011;68250;43.514;1.494;2023-07-08T01:18:12;12.38;;;4.47;;
78873;SDS011;68250;43.514;1.494;2023-07-08T01:20:41;9.23;;;4.73;;
78873;SDS011;68250;43.514;1.494;2023-07-08T01:23:07;13.63;;;4.93;;
78873;SDS011;68250;43.514;1.494;2023-07-08T01:25:34;8.48;;;4.70;;
78873;SDS011;68250;43.514;1.494;2023-07-08T01:28:00;10.25;;;4.10;;
78873;SDS011;68250;43.514;1.494;2023-07-08T01:30:27;8.23;;;3.80;;
78873;SDS011;68250;43.514;1.494;2023-07-08T01:32:57;13.30;;;4.77;;
78873;SDS011;68250;43.514;1.494;2023-07-08T01:35:25;9.15;;;4.50;;
78873;SDS011;68250;43.514;1.494;2023-07-08T01:37:54;9.20;;;4.28;;
78873;SDS011;68250;43.514;1.494;2023-07-08T01:40:35;8.67;;;4.47;;
78873;SDS011;68250;43.514;1.494;2023-07-08T01:43:02;8.70;;;4.53;;
78873;SDS011;68250;43.514;1.494;2023-07-08T01:45:31;9.43;;;4.68;;
78873;SDS011;68250;43.514;1.494;2023-07-08T01:48:01;8.98;;;4.25;;
78873;SDS011;68250;43.514;1.494;2023-07-08T01:50:29;8.77;;;4.50;;
78873;SDS011;68250;43.514;1.494;2023-07-08T01:52:56;10.80;;;4.30;;
78873;SDS011;68250;43.514;1.494;2023-07-08T01:55:24;11.18;;;4.72;;
78873;SDS011;68250;43.514;1.494;2023-07-08T01:57:51;10.10;;;3.95;;
78873;SDS011;68250;43.514;1.494;2023-07-08T02:00:20;10.68;;;4.13;;
78873;SDS011;68250;43.514;1.494;2023-07-08T02:02:47;9.82;;;4.32;;
78873;SDS011;68250;43.514;1.494;2023-07-08T02:05:13;8.53;;;4.20;;
78873;SDS011;68250;43.514;1.494;2023-07-08T02:07:39;7.10;;;4.25;;
78873;SDS011;68250;43.514;1.494;2023-07-08T02:10:05;9.30;;;4.03;;
78873;SDS011;68250;43.514;1.494;2023-07-08T02:12:31;12.40;;;4.73;;
78873;SDS011;68250;43.514;1.494;2023-07-08T02:15:00;13.18;;;4.50;;
78873;SDS011;68250;43.514;1.494;2023-07-08T02:17:26;8.98;;;4.47;;
78873;SDS011;68250;43.514;1.494;2023-07-08T02:19:54;12.80;;;4.73;;
78873;SDS011;68250;43.514;1.494;2023-07-08T02:22:20;8.75;;;4.72;;
78873;SDS011;68250;43.514;1.494;2023-07-08T02:24:46;11.65;;;4.82;;
78873;SDS011;68250;43.514;1.494;2023-07-08T02:27:12;11.43;;;4.67;;
78873;SDS011;68250;43.514;1.494;2023-07-08T02:29:37;12.07;;;4.70;;
78873;SDS011;68250;43.514;1.494;2023-07-08T02:32:03;11.47;;;5.27;;
78873;SDS011;68250;43.514;1.494;2023-07-08T02:34:29;11.23;;;4.85;;
78873;SDS011;68250;43.514;1.494;2023-07-08T02:36:55;11.03;;;4.50;;
78873;SDS011;68250;43.514;1.494;2023-07-08T02:39:21;11.15;;;4.50;;
78873;SDS011;68250;43.514;1.494;2023-07-08T02:41:47;11.50;;;4.75;;
78873;SDS011;68250;43.514;1.494;2023-07-08T02:44:13;9.60;;;4.43;;
78873;SDS011;68250;43.514;1.494;2023-07-08T02:46:39;11.53;;;4.80;;
78873;SDS011;68250;43.514;1.494;2023-07-08T02:49:04;11.03;;;4.80;;
78873;SDS011;68250;43.514;1.494;2023-07-08T02:51:31;11.85;;;4.88;;
78873;SDS011;68250;43.514;1.494;2023-07-08T02:53:57;11.02;;;4.43;;
78873;SDS011;68250;43.514;1.494;2023-07-08T02:56:22;9.53;;;4.77;;
78873;SDS011;68250;43.514;1.494;2023-07-08T02:58:48;10.10;;;4.47;;
78873;SDS011;68250;43.514;1.494;2023-07-08T03:01:14;8.43;;;4.40;;
78873;SDS011;68250;43.514;1.494;2023-07-08T03:03:46;13.20;;;4.78;;
78873;SDS011;68250;43.514;1.494;2023-07-08T03:06:12;8.63;;;4.00;;
78873;SDS011;68250;43.514;1.494;2023-07-08T03:08:38;10.25;;;3.85;;
78873;SDS011;68250;43.514;1.494;2023-07-08T03:11:05;9.10;;;4.60;;
78873;SDS011;68250;43.514;1.494;2023-07-08T03:13:32;10.43;;;4.30;;
78873;SDS011;68250;43.514;1.494;2023-07-08T03:15:58;11.43;;;5.18;;
78873;SDS011;68250;43.514;1.494;2023-07-08T03:18:25;9.27;;;4.25;;
78873;SDS011;68250;43.514;1.494;2023-07-08T03:20:52;11.32;;;4.28;;
78873;SDS011;68250;43.514;1.494;2023-07-08T03:23:21;10.60;;;4.47;;
78873;SDS011;68250;43.514;1.494;2023-07-08T03:25:48;12.27;;;4.23;;
78873;SDS011;68250;43.514;1.494;2023-07-08T03:28:14;10.50;;;4.38;;
78873;SDS011;68250;43.514;1.494;2023-07-08T03:30:43;10.00;;;4.67;;
78873;SDS011;68250;43.514;1.494;2023-07-08T03:33:10;9.73;;;4.57;;
78873;SDS011;68250;43.514;1.494;2023-07-08T03:35:36;10.13;;;4.32;;
78873;SDS011;68250;43.514;1.494;2023-07-08T03:38:03;11.70;;;4.95;;
78873;SDS011;68250;43.514;1.494;2023-07-08T03:40:30;10.30;;;4.57;;
78873;SDS011;68250;43.514;1.494;2023-07-08T03:42:56;11.90;;;4.80;;
78873;SDS011;68250;43.514;1.494;2023-07-08T03:45:21;9.23;;;4.53;;
78873;SDS011;68250;43.514;1.494;2023-07-08T03:47:47;10.73;;;4.40;;
78873;SDS011;68250;43.514;1.494;2023-07-08T03:50:22;13.35;;;4.60;;
78873;SDS011;68250;43.514;1.494;2023-07-08T03:52:49;10.20;;;4.27;;
78873;SDS011;68250;43.514;1.494;2023-07-08T03:55:16;10.20;;;4.15;;
78873;SDS011;68250;43.514;1.494;2023-07-08T03:57:42;8.15;;;4.25;;
78873;SDS011;68250;43.514;1.494;2023-07-08T04:00:08;8.40;;;3.77;;
78873;SDS011;68250;43.514;1.494;2023-07-08T04:02:40;10.48;;;4.25;;
78873;SDS011;68250;43.514;1.494;2023-07-08T04:05:16;8.15;;;4.07;;
78873;SDS011;68250;43.514;1.494;2023-07-08T04:07:42;10.02;;;4.20;;
78873;SDS011;68250;43.514;1.494;2023-07-08T04:10:09;10.53;;;4.20;;
78873;SDS011;68250;43.514;1.494;2023-07-08T04:12:35;11.80;;;4.43;;
78873;SDS011;68250;43.514;1.494;2023-07-08T04:15:01;8.63;;;4.15;;
78873;SDS011;68250;43.514;1.494;2023-07-08T04:17:27;8.90;;;4.20;;
78873;SDS011;68250;43.514;1.494;2023-07-08T04:19:53;10.90;;;4.07;;
78873;SDS011;68250;43.514;1.494;2023-07-08T04:22:21;11.07;;;4.00;;
78873;SDS011;68250;43.514;1.494;2023-07-08T04:24:47;9.37;;;4.60;;
78873;SDS011;68250;43.514;1.494;2023-07-08T04:27:15;8.23;;;4.30;;
78873;SDS011;68250;43.514;1.494;2023-07-08T04:29:42;10.45;;;4.28;;
78873;SDS011;68250;43.514;1.494;2023-07-08T04:32:08;8.73;;;4.07;;
78873;SDS011;68250;43.514;1.494;2023-07-08T04:34:34;11.30;;;4.53;;
78873;SDS011;68250;43.514;1.494;2023-07-08T04:37:00;9.53;;;4.27;;
78873;SDS011;68250;43.514;1.494;2023-07-08T04:39:26;9.88;;;4.28;;
78873;SDS011;68250;43.514;1.494;2023-07-08T04:41:52;9.77;;;4.97;;
78873;SDS011;68250;43.514;1.494;2023-07-08T04:44:18;13.17;;;5.37;;
78873;SDS011;68250;43.514;1.494;2023-07-08T04:49:16;12.52;;;5.20;;
78873;SDS011;68250;43.514;1.494;2023-07-08T04:51:42;10.30;;;4.70;;
78873;SDS011;68250;43.514;1.494;2023-07-08T04:54:09;10.93;;;4.68;;
78873;SDS011;68250;43.514;1.494;2023-07-08T04:56:36;11.43;;;4.80;;
78873;SDS011;68250;43.514;1.494;2023-07-08T04:59:02;9.85;;;4.45;;
78873;SDS011;68250;43.514;1.494;2023-07-08T05:01:27;10.63;;;5.40;;
78873;SDS011;68250;43.514;1.494;2023-07-08T05:03:53;11.10;;;5.20;;
78873;SDS011;68250;43.514;1.494;2023-07-08T05:06:19;10.27;;;5.07;;
78873;SDS011;68250;43.514;1.494;2023-07-08T05:08:44;12.23;;;5.40;;
78873;SDS011;68250;43.514;1.494;2023-07-08T05:11:10;10.23;;;4.63;;
78873;SDS011;68250;43.514;1.494;2023-07-08T05:13:35;11.15;;;5.07;;
78873;SDS011;68250;43.514;1.494;2023-07-08T05:16:01;14.30;;;5.40;;
78873;SDS011;68250;43.514;1.494;2023-07-08T05:18:27;10.43;;;5.03;;
78873;SDS011;68250;43.514;1.494;2023-07-08T05:20:52;13.93;;;6.00;;
78873;SDS011;68250;43.514;1.494;2023-07-08T05:23:20;16.35;;;5.78;;
78873;SDS011;68250;43.514;1.494;2023-07-08T05:25:46;12.38;;;5.40;;
78873;SDS011;68250;43.514;1.494;2023-07-08T05:28:11;12.80;;;5.67;;
78873;SDS011;68250;43.514;1.494;2023-07-08T05:30:39;11.70;;;5.23;;
78873;SDS011;68250;43.514;1.494;2023-07-08T05:33:05;15.05;;;5.22;;
78873;SDS011;68250;43.514;1.494;2023-07-08T05:35:30;11.18;;;5.40;;
78873;SDS011;68250;43.514;1.494;2023-07-08T05:37:56;14.70;;;4.87;;
78873;SDS011;68250;43.514;1.494;2023-07-08T05:40:21;9.63;;;5.40;;
78873;SDS011;68250;43.514;1.494;2023-07-08T05:42:47;13.07;;;5.63;;
78873;SDS011;68250;43.514;1.494;2023-07-08T05:45:13;13.63;;;5.63;;
78873;SDS011;68250;43.514;1.494;2023-07-08T05:47:38;11.20;;;5.45;;
78873;SDS011;68250;43.514;1.494;2023-07-08T05:50:04;12.83;;;5.67;;
78873;SDS011;68250;43.514;1.494;2023-07-08T05:52:30;11.90;;;5.75;;
78873;SDS011;68250;43.514;1.494;2023-07-08T05:54:56;10.80;;;5.28;;
78873;SDS011;68250;43.514;1.494;2023-07-08T05:57:22;11.73;;;5.57;;
78873;SDS011;68250;43.514;1.494;2023-07-08T05:59:50;17.27;;;5.20;;
78873;SDS011;68250;43.514;1.494;2023-07-08T06:02:16;13.07;;;5.60;;
78873;SDS011;68250;43.514;1.494;2023-07-08T06:04:44;13.95;;;5.88;;
78873;SDS011;68250;43.514;1.494;2023-07-08T06:07:10;18.93;;;6.57;;
78873;SDS011;68250;43.514;1.494;2023-07-08T06:09:36;13.95;;;6.15;;
78873;SDS011;68250;43.514;1.494;2023-07-08T06:12:01;12.10;;;5.90;;
78873;SDS011;68250;43.514;1.494;2023-07-08T06:14:27;16.27;;;5.68;;
78873;SDS011;68250;43.514;1.494;2023-07-08T06:16:53;13.57;;;5.85;;
78873;SDS011;68250;43.514;1.494;2023-07-08T06:19:22;12.83;;;5.97;;
78873;SDS011;68250;43.514;1.494;2023-07-08T06:21:48;11.50;;;5.93;;
78873;SDS011;68250;43.514;1.494;2023-07-08T06:24:14;13.43;;;5.93;;
78873;SDS011;68250;43.514;1.494;2023-07-08T06:26:39;13.10;;;6.57;;
78873;SDS011;68250;43.514;1.494;2023-07-08T06:29:05;11.82;;;5.35;;
78873;SDS011;68250;43.514;1.494;2023-07-08T06:31:31;15.70;;;6.20;;
78873;SDS011;68250;43.514;1.494;2023-07-08T06:33:57;13.48;;;6.13;;
78873;SDS011;68250;43.514;1.494;2023-07-08T06:36:22;12.57;;;5.80;;
78873;SDS011;68250;43.514;1.494;2023-07-08T06:38:48;14.88;;;5.60;;
78873;SDS011;68250;43.514;1.494;2023-07-08T06:41:14;14.83;;;5.53;;
78873;SDS011;68250;43.514;1.494;2023-07-08T06:43:40;13.73;;;5.43;;
78873;SDS011;68250;43.514;1.494;2023-07-08T06:46:06;12.97;;;5.33;;
78873;SDS011;68250;43.514;1.494;2023-07-08T06:48:32;13.00;;;5.50;;
78873;SDS011;68250;43.514;1.494;2023-07-08T06:50:58;14.90;;;5.10;;
78873;SDS011;68250;43.514;1.494;2023-07-08T06:53:24;14.00;;;5.70;;
78873;SDS011;68250;43.514;1.494;2023-07-08T06:55:50;10.10;;;4.70;;
78873;SDS011;68250;43.514;1.494;2023-07-08T06:58:16;11.50;;;5.18;;
78873;SDS011;68250;43.514;1.494;2023-07-08T07:00:43;11.95;;;5.03;;
78873;SDS011;68250;43.514;1.494;2023-07-08T07:03:09;11.67;;;5.03;;
78873;SDS011;68250;43.514;1.494;2023-07-08T07:05:35;11.90;;;4.68;;
78873;SDS011;68250;43.514;1.494;2023-07-08T07:08:01;12.63;;;4.72;;
78873;SDS011;68250;43.514;1.494;2023-07-08T07:10:27;12.33;;;4.80;;
78873;SDS011;68250;43.514;1.494;2023-07-08T07:12:52;13.50;;;4.40;;
78873;SDS011;68250;43.514;1.494;2023-07-08T07:15:18;12.20;;;4.80;;
78873;SDS011;68250;43.514;1.494;2023-07-08T07:17:44;13.52;;;4.63;;
78873;SDS011;68250;43.514;1.494;2023-07-08T07:20:10;11.75;;;5.07;;
78873;SDS011;68250;43.514;1.494;2023-07-08T07:22:36;10.47;;;4.80;;
78873;SDS011;68250;43.514;1.494;2023-07-08T07:25:01;15.07;;;5.10;;
78873;SDS011;68250;43.514;1.494;2023-07-08T07:27:27;12.20;;;4.93;;
78873;SDS011;68250;43.514;1.494;2023-07-08T07:29:53;15.00;;;4.90;;
78873;SDS011;68250;43.514;1.494;2023-07-08T07:32:19;12.50;;;4.17;;
78873;SDS011;68250;43.514;1.494;2023-07-08T07:34:48;11.07;;;4.80;;
78873;SDS011;68250;43.514;1.494;2023-07-08T07:37:15;13.07;;;4.85;;
78873;SDS011;68250;43.514;1.494;2023-07-08T07:39:41;9.63;;;4.60;;
78873;SDS011;68250;43.514;1.494;2023-07-08T07:42:08;11.40;;;4.90;;
78873;SDS011;68250;43.514;1.494;2023-07-08T07:44:34;12.67;;;4.77;;
78873;SDS011;68250;43.514;1.494;2023-07-08T07:47:01;9.60;;;4.43;;
78873;SDS011;68250;43.514;1.494;2023-07-08T07:49:27;18.25;;;5.38;;
78873;SDS011;68250;43.514;1.494;2023-07-08T07:51:53;11.53;;;3.97;;
78873;SDS011;68250;43.514;1.494;2023-07-08T07:54:18;12.88;;;5.18;;
78873;SDS011;68250;43.514;1.494;2023-07-08T07:56:44;8.80;;;4.60;;
78873;SDS011;68250;43.514;1.494;2023-07-08T07:59:10;11.97;;;4.90;;
78873;SDS011;68250;43.514;1.494;2023-07-08T08:01:36;13.57;;;5.10;;
78873;SDS011;68250;43.514;1.494;2023-07-08T08:04:01;10.35;;;4.93;;
78873;SDS011;68250;43.514;1.494;2023-07-08T08:06:27;10.77;;;4.33;;
78873;SDS011;68250;43.514;1.494;2023-07-08T08:08:53;10.68;;;4.63;;
78873;SDS011;68250;43.514;1.494;2023-07-08T08:11:18;11.77;;;4.73;;
78873;SDS011;68250;43.514;1.494;2023-07-08T08:13:44;12.55;;;5.60;;
78873;SDS011;68250;43.514;1.494;2023-07-08T08:16:10;14.47;;;4.53;;
78873;SDS011;68250;43.514;1.494;2023-07-08T08:18:36;14.88;;;4.72;;
78873;SDS011;68250;43.514;1.494;2023-07-08T08:21:02;14.73;;;4.93;;
78873;SDS011;68250;43.514;1.494;2023-07-08T08:23:27;11.98;;;4.80;;
78873;SDS011;68250;43.514;1.494;2023-07-08T08:25:53;11.50;;;5.27;;
78873;SDS011;68250;43.514;1.494;2023-07-08T08:28:19;16.97;;;5.40;;
78873;SDS011;68250;43.514;1.494;2023-07-08T08:30:49;12.88;;;4.80;;
78873;SDS011;68250;43.514;1.494;2023-07-08T08:33:15;12.65;;;4.75;;
78873;SDS011;68250;43.514;1.494;2023-07-08T08:35:42;9.80;;;4.73;;
78873;SDS011;68250;43.514;1.494;2023-07-08T08:38:08;12.13;;;5.05;;
78873;SDS011;68250;43.514;1.494;2023-07-08T08:40:34;12.00;;;4.90;;
78873;SDS011;68250;43.514;1.494;2023-07-08T08:43:01;12.27;;;4.73;;
78873;SDS011;68250;43.514;1.494;2023-07-08T08:45:34;14.90;;;4.88;;
78873;SDS011;68250;43.514;1.494;2023-07-08T08:48:13;9.52;;;5.22;;
78873;SDS011;68250;43.514;1.494;2023-07-08T08:50:55;12.93;;;5.47;;
78873;SDS011;68250;43.514;1.494;2023-07-08T08:53:25;9.38;;;4.72;;
78873;SDS011;68250;43.514;1.494;2023-07-08T08:58:45;11.82;;;4.82;;
78873;SDS011;68250;43.514;1.494;2023-07-08T09:01:18;12.88;;;4.95;;
78873;SDS011;68250;43.514;1.494;2023-07-08T09:08:50;10.53;;;5.30;;
78873;SDS011;68250;43.514;1.494;2023-07-08T09:11:35;12.90;;;5.00;;
78873;SDS011;68250;43.514;1.494;2023-07-08T09:14:03;12.20;;;4.88;;
78873;SDS011;68250;43.514;1.494;2023-07-08T09:19:15;10.60;;;4.78;;
78873;SDS011;68250;43.514;1.494;2023-07-08T09:21:49;10.73;;;5.07;;
78873;SDS011;68250;43.514;1.494;2023-07-08T09:25:03;13.60;;;5.28;;
78873;SDS011;68250;43.514;1.494;2023-07-08T09:27:09;11.85;;;4.88;;
78873;SDS011;68250;43.514;1.494;2023-07-08T09:29:35;13.55;;;5.18;;
78873;SDS011;68250;43.514;1.494;2023-07-08T09:32:11;15.90;;;4.90;;
78873;SDS011;68250;43.514;1.494;2023-07-08T09:34:42;13.32;;;4.88;;
78873;SDS011;68250;43.514;1.494;2023-07-08T09:39:51;10.50;;;4.85;;
78873;SDS011;68250;43.514;1.494;2023-07-08T09:42:17;11.37;;;4.80;;
78873;SDS011;68250;43.514;1.494;2023-07-08T09:44:45;12.65;;;4.97;;
78873;SDS011;68250;43.514;1.494;2023-07-08T09:47:19;11.43;;;4.82;;
78873;SDS011;68250;43.514;1.494;2023-07-08T09:49:48;9.68;;;5.00;;
78873;SDS011;68250;43.514;1.494;2023-07-08T09:52:13;13.43;;;4.73;;
78873;SDS011;68250;43.514;1.494;2023-07-08T09:54:42;11.40;;;4.55;;
78873;SDS011;68250;43.514;1.494;2023-07-08T09:59:43;11.70;;;4.63;;
78873;SDS011;68250;43.514;1.494;2023-07-08T10:02:22;15.25;;;5.15;;
78873;SDS011;68250;43.514;1.494;2023-07-08T10:04:53;13.20;;;5.13;;
78873;SDS011;68250;43.514;1.494;2023-07-08T10:07:20;10.90;;;4.90;;
78873;SDS011;68250;43.514;1.494;2023-07-08T10:09:47;13.20;;;4.97;;
78873;SDS011;68250;43.514;1.494;2023-07-08T10:12:14;14.32;;;5.18;;
78873;SDS011;68250;43.514;1.494;2023-07-08T10:14:45;11.60;;;5.38;;
78873;SDS011;68250;43.514;1.494;2023-07-08T10:17:18;12.15;;;5.20;;
78873;SDS011;68250;43.514;1.494;2023-07-08T10:19:46;11.07;;;5.00;;
78873;SDS011;68250;43.514;1.494;2023-07-08T10:25:23;14.80;;;4.95;;
78873;SDS011;68250;43.514;1.494;2023-07-08T10:28:06;10.35;;;5.20;;
78873;SDS011;68250;43.514;1.494;2023-07-08T10:34:00;9.38;;;4.75;;
78873;SDS011;68250;43.514;1.494;2023-07-08T10:39:36;10.93;;;5.00;;
78873;SDS011;68250;43.514;1.494;2023-07-08T11:04:55;14.43;;;5.37;;
78873;SDS011;68250;43.514;1.494;2023-07-08T11:07:47;14.20;;;5.82;;
78873;SDS011;68250;43.514;1.494;2023-07-08T11:10:16;12.35;;;5.60;;
78873;SDS011;68250;43.514;1.494;2023-07-08T11:12:47;15.18;;;6.90;;
78873;SDS011;68250;43.514;1.494;2023-07-08T11:15:18;16.52;;;9.57;;
78873;SDS011;68250;43.514;1.494;2023-07-08T11:18:04;13.53;;;6.93;;
78873;SDS011;68250;43.514;1.494;2023-07-08T11:20:39;12.20;;;6.68;;
78873;SDS011;68250;43.514;1.494;2023-07-08T11:26:16;11.88;;;5.60;;
78873;SDS011;68250;43.514;1.494;2023-07-08T11:28:43;14.25;;;6.80;;
78873;SDS011;68250;43.514;1.494;2023-07-08T11:31:09;13.57;;;6.90;;
78873;SDS011;68250;43.514;1.494;2023-07-08T11:33:35;11.18;;;5.57;;
78873;SDS011;68250;43.514;1.494;2023-07-08T11:36:02;15.80;;;6.22;;
78873;SDS011;68250;43.514;1.494;2023-07-08T11:38:28;10.48;;;5.68;;
78873;SDS011;68250;43.514;1.494;2023-07-08T11:41:10;10.63;;;5.43;;
78873;SDS011;68250;43.514;1.494;2023-07-08T11:43:42;12.73;;;5.80;;
78873;SDS011;68250;43.514;1.494;2023-07-08T11:46:13;11.82;;;6.07;;
78873;SDS011;68250;43.514;1.494;2023-07-08T11:48:45;9.38;;;5.13;;
78873;SDS011;68250;43.514;1.494;2023-07-08T11:51:20;11.35;;;5.75;;
78873;SDS011;68250;43.514;1.494;2023-07-08T11:53:50;11.40;;;4.60;;
78873;SDS011;68250;43.514;1.494;2023-07-08T11:56:26;15.60;;;5.63;;
78873;SDS011;68250;43.514;1.494;2023-07-08T11:58:57;11.35;;;5.18;;
78873;SDS011;68250;43.514;1.494;2023-07-08T12:09:23;13.25;;;4.85;;
78873;SDS011;68250;43.514;1.494;2023-07-08T12:11:57;11.90;;;4.75;;
78873;SDS011;68250;43.514;1.494;2023-07-08T12:14:25;12.47;;;4.57;;
78873;SDS011;68250;43.514;1.494;2023-07-08T12:16:51;10.60;;;4.80;;
78873;SDS011;68250;43.514;1.494;2023-07-08T12:19:18;10.77;;;4.90;;
78873;SDS011;68250;43.514;1.494;2023-07-08T12:21:45;7.47;;;4.40;;
78873;SDS011;68250;43.514;1.494;2023-07-08T12:24:11;7.78;;;3.95;;
78873;SDS011;68250;43.514;1.494;2023-07-08T12:26:38;10.38;;;4.38;;
78873;SDS011;68250;43.514;1.494;2023-07-08T12:29:04;10.87;;;4.73;;
78873;SDS011;68250;43.514;1.494;2023-07-08T12:31:30;11.02;;;4.68;;
78873;SDS011;68250;43.514;1.494;2023-07-08T12:33:57;10.32;;;4.90;;
78873;SDS011;68250;43.514;1.494;2023-07-08T12:36:24;9.38;;;4.30;;
78873;SDS011;68250;43.514;1.494;2023-07-08T12:38:52;9.50;;;4.38;;
78873;SDS011;68250;43.514;1.494;2023-07-08T12:41:29;9.10;;;4.10;;
78873;SDS011;68250;43.514;1.494;2023-07-08T12:43:57;8.40;;;4.15;;
78873;SDS011;68250;43.514;1.494;2023-07-08T12:46:23;8.32;;;4.13;;
78873;SDS011;68250;43.514;1.494;2023-07-08T12:48:49;9.88;;;4.53;;
78873;SDS011;68250;43.514;1.494;2023-07-08T12:51:16;8.80;;;4.13;;
78873;SDS011;68250;43.514;1.494;2023-07-08T12:53:43;9.20;;;4.18;;
78873;SDS011;68250;43.514;1.494;2023-07-08T12:56:09;10.88;;;4.40;;
78873;SDS011;68250;43.514;1.494;2023-07-08T12:58:42;11.83;;;4.50;;
78873;SDS011;68250;43.514;1.494;2023-07-08T13:01:13;9.05;;;4.47;;
78873;SDS011;68250;43.514;1.494;2023-07-08T13:03:42;9.05;;;4.40;;
78873;SDS011;68250;43.514;1.494;2023-07-08T13:06:09;8.50;;;4.53;;
78873;SDS011;68250;43.514;1.494;2023-07-08T13:08:37;8.98;;;4.38;;
78873;SDS011;68250;43.514;1.494;2023-07-08T13:11:04;11.80;;;4.63;;
78873;SDS011;68250;43.514;1.494;2023-07-08T13:13:38;10.15;;;4.45;;
78873;SDS011;68250;43.514;1.494;2023-07-08T13:16:06;11.00;;;4.40;;
78873;SDS011;68250;43.514;1.494;2023-07-08T13:18:36;7.53;;;4.05;;
78873;SDS011;68250;43.514;1.494;2023-07-08T13:21:04;8.93;;;4.25;;
78873;SDS011;68250;43.514;1.494;2023-07-08T13:23:31;12.03;;;4.17;;
78873;SDS011;68250;43.514;1.494;2023-07-08T13:25:57;8.45;;;4.20;;
78873;SDS011;68250;43.514;1.494;2023-07-08T13:28:24;11.18;;;4.15;;
78873;SDS011;68250;43.514;1.494;2023-07-08T13:30:54;9.73;;;4.60;;
78873;SDS011;68250;43.514;1.494;2023-07-08T13:33:38;12.68;;;4.38;;
78873;SDS011;68250;43.514;1.494;2023-07-08T13:36:11;9.55;;;4.30;;
78873;SDS011;68250;43.514;1.494;2023-07-08T13:38:37;9.38;;;4.20;;
78873;SDS011;68250;43.514;1.494;2023-07-08T13:41:04;9.18;;;3.95;;
78873;SDS011;68250;43.514;1.494;2023-07-08T13:43:33;11.07;;;4.50;;
78873;SDS011;68250;43.514;1.494;2023-07-08T13:46:00;9.60;;;4.35;;
78873;SDS011;68250;43.514;1.494;2023-07-08T13:53:45;10.20;;;4.20;;
78873;SDS011;68250;43.514;1.494;2023-07-08T13:56:20;8.90;;;4.47;;
78873;SDS011;68250;43.514;1.494;2023-07-08T13:58:51;7.25;;;3.67;;
78873;SDS011;68250;43.514;1.494;2023-07-08T14:01:22;10.45;;;4.18;;
78873;SDS011;68250;43.514;1.494;2023-07-08T14:03:50;7.82;;;4.22;;
78873;SDS011;68250;43.514;1.494;2023-07-08T14:06:17;9.85;;;4.18;;
78873;SDS011;68250;43.514;1.494;2023-07-08T14:08:45;9.27;;;4.43;;
78873;SDS011;68250;43.514;1.494;2023-07-08T14:11:10;8.85;;;4.30;;
78873;SDS011;68250;43.514;1.494;2023-07-08T14:13:36;10.33;;;3.83;;
78873;SDS011;68250;43.514;1.494;2023-07-08T14:16:02;6.85;;;4.00;;
78873;SDS011;68250;43.514;1.494;2023-07-08T14:18:29;9.20;;;4.27;;
78873;SDS011;68250;43.514;1.494;2023-07-08T14:20:55;8.50;;;3.97;;
78873;SDS011;68250;43.514;1.494;2023-07-08T14:23:21;8.60;;;3.93;;
78873;SDS011;68250;43.514;1.494;2023-07-08T14:25:46;11.50;;;4.50;;
78873;SDS011;68250;43.514;1.494;2023-07-08T14:28:13;9.38;;;4.07;;
78873;SDS011;68250;43.514;1.494;2023-07-08T14:30:44;8.25;;;4.47;;
78873;SDS011;68250;43.514;1.494;2023-07-08T14:33:11;8.00;;;3.80;;
78873;SDS011;68250;43.514;1.494;2023-07-08T14:35:38;9.18;;;4.25;;
78873;SDS011;68250;43.514;1.494;2023-07-08T14:38:14;7.28;;;3.90;;
78873;SDS011;68250;43.514;1.494;2023-07-08T14:40:41;10.88;;;4.18;;
78873;SDS011;68250;43.514;1.494;2023-07-08T14:43:13;9.88;;;4.22;;
78873;SDS011;68250;43.514;1.494;2023-07-08T14:45:48;7.60;;;4.50;;
78873;SDS011;68250;43.514;1.494;2023-07-08T14:48:15;10.27;;;4.38;;
78873;SDS011;68250;43.514;1.494;2023-07-08T14:50:41;8.55;;;3.95;;
78873;SDS011;68250;43.514;1.494;2023-07-08T14:53:07;9.35;;;4.45;;
78873;SDS011;68250;43.514;1.494;2023-07-08T14:55:33;8.18;;;4.50;;
78873;SDS011;68250;43.514;1.494;2023-07-08T14:58:00;9.83;;;4.27;;
78873;SDS011;68250;43.514;1.494;2023-07-08T15:00:28;9.63;;;4.50;;
78873;SDS011;68250;43.514;1.494;2023-07-08T15:02:54;11.23;;;4.28;;
78873;SDS011;68250;43.514;1.494;2023-07-08T15:05:24;7.82;;;3.90;;
78873;SDS011;68250;43.514;1.494;2023-07-08T15:07:53;9.38;;;4.28;;
78873;SDS011;68250;43.514;1.494;2023-07-08T15:10:23;8.43;;;3.80;;
78873;SDS011;68250;43.514;1.494;2023-07-08T15:12:50;9.50;;;4.13;;
78873;SDS011;68250;43.514;1.494;2023-07-08T15:15:18;9.40;;;4.50;;
78873;SDS011;68250;43.514;1.494;2023-07-08T15:17:56;8.13;;;3.95;;
78873;SDS011;68250;43.514;1.494;2023-07-08T15:20:23;9.50;;;4.20;;
78873;SDS011;68250;43.514;1.494;2023-07-08T15:22:49;10.38;;;4.57;;
78873;SDS011;68250;43.514;1.494;2023-07-08T15:25:15;8.73;;;4.28;;
78873;SDS011;68250;43.514;1.494;2023-07-08T15:27:42;7.10;;;3.75;;
78873;SDS011;68250;43.514;1.494;2023-07-08T15:30:15;10.48;;;4.03;;
78873;SDS011;68250;43.514;1.494;2023-07-08T15:32:43;8.80;;;3.63;;
78873;SDS011;68250;43.514;1.494;2023-07-08T15:35:20;8.52;;;4.10;;
78873;SDS011;68250;43.514;1.494;2023-07-08T15:37:49;10.65;;;4.18;;
78873;SDS011;68250;43.514;1.494;2023-07-08T15:40:17;9.68;;;3.97;;
78873;SDS011;68250;43.514;1.494;2023-07-08T15:42:45;7.65;;;4.22;;
78873;SDS011;68250;43.514;1.494;2023-07-08T15:45:12;7.80;;;4.23;;
78873;SDS011;68250;43.514;1.494;2023-07-08T15:47:45;9.45;;;4.18;;
78873;SDS011;68250;43.514;1.494;2023-07-08T15:50:11;7.80;;;3.70;;
78873;SDS011;68250;43.514;1.494;2023-07-08T15:52:38;9.00;;;4.27;;
78873;SDS011;68250;43.514;1.494;2023-07-08T15:55:04;11.00;;;4.20;;
78873;SDS011;68250;43.514;1.494;2023-07-08T15:57:31;7.40;;;4.25;;